Time,TemperatureF,DewpointF,PressureIn,WindDirection,WindDirectionDegrees,WindSpeedMPH,WindSpeedGustMPH,Humidity,HourlyPrecipIn,Conditions,Clouds,dailyrainin,SolarRadiationWatts/m^2,SoftwareType,DateUTC
2013-03-20 00:00:00,48.7,8.2,30.08,NW,305,2.0,3.0,19,0.00,,,0.00,0,Wunderground v.1.15,2013-03-20 04:00:00,
2013-03-20 00:01:00,48.7,8.2,30.08,West,269,4.0,4.0,19,0.00,,,0.00,0,Wunderground v.1.15,2013-03-20 04:01:00,
2013-03-20 00:02:00,48.7,8.2,30.08,WSW,246,4.0,4.0,19,0.00,,,0.00,0,Wunderground v.1.15,2013-03-20 04:02:00,
2013-03-20 00:07:00,48.7,8.2,30.08,NNW,330,1.0,6.0,19,0.00,,,0.00,0,Wunderground v.1.15,2013-03-20 04:07:00,
2013-03-20 00:10:00,48.5,8.0,30.08,West,273,2.0,3.0,19,0.00,,,0.00,0,Wunderground v.1.15,2013-03-20 04:10:00,
2013-03-20 00:16:00,48.3,7.9,30.08,West,273,2.0,10.0,19,0.00,,,0.00,0,Wunderground v.1.15,2013-03-20 04:16:00,
2013-03-20 00:22:00,48.2,7.8,30.08,North,5,4.0,6.0,19,0.00,,,0.00,0,Wunderground v.1.15,2013-03-20 04:22:00,
2013-03-20 00:27:00,47.7,7.4,30.08,WNW,294,2.0,7.0,19,0.00,,,0.00,0,Wunderground v.1.15,2013-03-20 04:27:00,
2013-03-20 00:33:00,47.6,7.3,30.08,NW,310,1.0,6.0,19,0.00,,,0.00,0,Wunderground v.1.15,2013-03-20 04:33:00,
2013-03-20 00:38:00,47.3,9.3,30.08,West,275,2.0,6.0,21,0.00,,,0.00,0,Wunderground v.1.15,2013-03-20 04:38:00,
2013-03-20 00:44:00,46.9,7.8,30.09,WNW,302,1.0,4.0,20,0.00,,,0.00,0,Wunderground v.1.15,2013-03-20 04:44:00,
2013-03-20 00:49:00,46.3,8.4,30.08,WNW,302,1.0,4.0,21,0.00,,,0.00,0,Wunderground v.1.15,2013-03-20 04:49:00,
2013-03-20 00:54:00,46.1,8.3,30.08,NW,318,1.0,3.0,21,0.00,,,0.00,0,Wunderground v.1.15,2013-03-20 04:54:00,
2013-03-20 01:00:00,45.9,8.1,30.08,WNW,297,0.0,2.0,21,0.00,,,0.00,0,Wunderground v.1.15,2013-03-20 05:00:00,
2013-03-20 01:06:00,45.8,8.0,30.08,West,265,3.0,3.0,21,0.00,,,0.00,0,Wunderground v.1.15,2013-03-20 05:06:00,
2013-03-20 01:12:00,45.6,9.9,30.08,WSW,257,1.0,2.0,23,0.00,,,0.00,0,Wunderground v.1.15,2013-03-20 05:12:00,
2013-03-20 01:17:00,45.0,9.4,30.08,WNW,299,1.0,4.0,23,0.00,,,0.00,0,Wunderground v.1.15,2013-03-20 05:17:00,
2013-03-20 01:23:00,44.6,8.0,30.08,NW,306,2.0,3.0,22,0.00,,,0.00,0,Wunderground v.1.15,2013-03-20 05:23:00,
2013-03-20 01:28:00,44.3,8.8,30.08,WNW,298,0.0,3.0,23,0.00,,,0.00,0,Wunderground v.1.15,2013-03-20 05:28:00,
2013-03-20 01:34:00,44.0,8.5,30.08,WNW,290,0.0,1.0,23,0.00,,,0.00,0,Wunderground v.1.15,2013-03-20 05:34:00,
2013-03-20 01:39:00,43.3,7.9,30.08,WNW,289,0.0,1.0,23,0.00,,,0.00,0,Wunderground v.1.15,2013-03-20 05:39:00,
2013-03-20 01:45:00,42.8,9.3,30.07,WNW,300,1.0,1.0,25,0.00,,,0.00,0,Wunderground v.1.15,2013-03-20 05:45:00,
2013-03-20 01:51:00,42.3,10.6,30.07,WNW,290,1.0,1.0,27,0.00,,,0.00,0,Wunderground v.1.15,2013-03-20 05:51:00,
2013-03-20 01:56:00,42.7,8.4,30.08,WNW,282,1.0,2.0,24,0.00,,,0.00,0,Wunderground v.1.15,2013-03-20 05:56:00,
2013-03-20 02:01:00,42.6,9.2,30.08,SSW,200,2.0,2.0,25,0.00,,,0.00,0,Wunderground v.1.15,2013-03-20 06:01:00,
2013-03-20 02:06:00,42.0,9.5,30.08,SSW,208,2.0,3.0,26,0.00,,,0.00,0,Wunderground v.1.15,2013-03-20 06:06:00,
2013-03-20 02:11:00,41.8,9.4,30.08,SSW,208,0.0,1.0,26,0.00,,,0.00,0,Wunderground v.1.15,2013-03-20 06:11:00,
2013-03-20 02:16:00,41.5,9.9,30.08,SSW,208,0.0,1.0,27,0.00,,,0.00,0,Wunderground v.1.15,2013-03-20 06:16:00,
2013-03-20 02:21:00,41.1,10.4,30.08,WNW,284,0.0,2.0,28,0.00,,,0.00,0,Wunderground v.1.15,2013-03-20 06:21:00,
2013-03-20 02:26:00,38.9,10.8,30.08,NW,304,1.0,2.0,31,0.00,,,0.00,0,Wunderground v.1.15,2013-03-20 06:26:00,
2013-03-20 02:31:00,38.0,12.7,30.08,NW,304,0.0,1.0,35,0.00,,,0.00,0,Wunderground v.1.15,2013-03-20 06:31:00,
2013-03-20 02:36:00,38.4,11.8,30.08,NW,304,0.0,1.0,33,0.00,,,0.00,0,Wunderground v.1.15,2013-03-20 06:36:00,
2013-03-20 02:41:00,39.3,11.9,30.08,NW,304,1.0,2.0,32,0.00,,,0.00,0,Wunderground v.1.15,2013-03-20 06:41:00,
2013-03-20 02:46:00,39.4,14.0,30.08,West,260,0.0,2.0,35,0.00,,,0.00,0,Wunderground v.1.15,2013-03-20 06:46:00,
2013-03-20 02:51:00,39.5,10.6,30.08,West,259,0.0,1.0,30,0.00,,,0.00,0,Wunderground v.1.15,2013-03-20 06:51:00,
2013-03-20 02:56:00,39.1,11.0,30.09,West,259,0.0,1.0,31,0.00,,,0.00,0,Wunderground v.1.15,2013-03-20 06:56:00,
2013-03-20 03:01:00,38.4,11.8,30.08,WSW,258,2.0,2.0,33,0.00,,,0.00,0,Wunderground v.1.15,2013-03-20 07:01:00,
2013-03-20 03:06:00,37.6,12.4,30.08,WSW,256,0.0,2.0,35,0.00,,,0.00,0,Wunderground v.1.15,2013-03-20 07:06:00,
2013-03-20 03:11:00,37.0,14.3,30.08,WSW,256,0.0,0.0,39,0.00,,,0.00,0,Wunderground v.1.15,2013-03-20 07:11:00,
2013-03-20 03:16:00,36.9,15.4,30.08,WSW,256,0.0,1.0,41,0.00,,,0.00,0,Wunderground v.1.15,2013-03-20 07:16:00,
2013-03-20 03:21:00,35.9,12.7,30.08,WSW,256,0.0,0.0,38,0.00,,,0.00,0,Wunderground v.1.15,2013-03-20 07:21:00,
2013-03-20 03:26:00,35.3,13.3,30.08,WSW,256,0.0,0.0,40,0.00,,,0.00,0,Wunderground v.1.15,2013-03-20 07:26:00,
2013-03-20 03:31:00,34.5,13.7,30.08,WSW,256,0.0,0.0,42,0.00,,,0.00,0,Wunderground v.1.15,2013-03-20 07:31:00,
2013-03-20 03:36:00,34.4,13.1,30.08,WSW,256,0.0,0.0,41,0.00,,,0.00,0,Wunderground v.1.15,2013-03-20 07:36:00,
2013-03-20 03:41:00,34.2,15.5,30.08,WSW,256,0.0,0.0,46,0.00,,,0.00,0,Wunderground v.1.15,2013-03-20 07:41:00,
2013-03-20 03:47:00,33.8,15.7,30.08,WNW,292,0.0,2.0,47,0.00,,,0.00,0,Wunderground v.1.15,2013-03-20 07:47:00,
2013-03-20 03:51:00,32.9,15.3,30.08,WNW,293,0.0,1.0,48,0.00,,,0.00,0,Wunderground v.1.15,2013-03-20 07:51:00,
2013-03-20 03:56:00,33.0,15.4,30.08,WNW,293,0.0,1.0,48,0.00,,,0.00,0,Wunderground v.1.15,2013-03-20 07:56:00,
2013-03-20 04:01:00,32.4,16.7,30.08,WNW,293,0.0,0.0,52,0.00,,,0.00,0,Wunderground v.1.15,2013-03-20 08:01:00,
2013-03-20 04:06:00,31.8,17.0,30.08,WNW,293,0.0,0.0,54,0.00,,,0.00,0,Wunderground v.1.15,2013-03-20 08:06:00,
2013-03-20 04:11:00,32.1,16.9,30.08,WNW,293,0.0,0.0,53,0.00,,,0.00,0,Wunderground v.1.15,2013-03-20 08:11:00,
2013-03-20 04:17:00,32.1,15.5,30.08,WNW,293,0.0,0.0,50,0.00,,,0.00,0,Wunderground v.1.15,2013-03-20 08:17:00,
2013-03-20 04:22:00,31.6,16.8,30.08,WNW,293,0.0,0.0,54,0.00,,,0.00,0,Wunderground v.1.15,2013-03-20 08:22:00,
2013-03-20 04:27:00,31.0,17.9,30.08,WNW,293,0.0,0.0,58,0.00,,,0.00,0,Wunderground v.1.15,2013-03-20 08:27:00,
2013-03-20 04:32:00,30.9,19.0,30.08,WNW,293,0.0,0.0,61,0.00,,,0.00,0,Wunderground v.1.15,2013-03-20 08:32:00,
2013-03-20 04:37:00,30.9,19.8,30.08,WNW,293,0.0,0.0,63,0.00,,,0.00,0,Wunderground v.1.15,2013-03-20 08:37:00,
2013-03-20 04:42:00,31.1,19.2,30.08,WNW,293,0.0,1.0,61,0.00,,,0.00,0,Wunderground v.1.15,2013-03-20 08:42:00,
2013-03-20 04:47:00,31.4,17.5,30.08,WNW,293,0.0,1.0,56,0.00,,,0.00,0,Wunderground v.1.15,2013-03-20 08:47:00,
2013-03-20 04:52:00,31.5,19.2,30.08,WNW,293,0.0,1.0,60,0.00,,,0.00,0,Wunderground v.1.15,2013-03-20 08:52:00,
2013-03-20 04:57:00,32.2,18.7,30.08,WNW,293,0.0,2.0,57,0.00,,,0.00,0,Wunderground v.1.15,2013-03-20 08:57:00,
2013-03-20 05:02:00,32.6,16.9,30.08,WNW,293,0.0,1.0,52,0.00,,,0.00,0,Wunderground v.1.15,2013-03-20 09:02:00,
2013-03-20 05:07:00,32.8,17.5,30.09,WNW,297,1.0,2.0,53,0.00,,,0.00,0,Wunderground v.1.15,2013-03-20 09:07:00,
2013-03-20 05:12:00,33.3,17.1,30.09,WNW,285,0.0,1.0,51,0.00,,,0.00,0,Wunderground v.1.15,2013-03-20 09:12:00,
2013-03-20 05:17:00,33.4,16.7,30.09,NW,315,1.0,2.0,50,0.00,,,0.00,0,Wunderground v.1.15,2013-03-20 09:17:00,
2013-03-20 05:22:00,33.0,16.4,30.09,NW,323,1.0,2.0,50,0.00,,,0.00,0,Wunderground v.1.15,2013-03-20 09:22:00,
2013-03-20 05:27:00,32.4,18.0,30.09,NNW,340,1.0,2.0,55,0.00,,,0.00,0,Wunderground v.1.15,2013-03-20 09:27:00,
2013-03-20 05:32:00,31.8,17.0,30.09,NNW,327,3.0,3.0,54,0.00,,,0.00,0,Wunderground v.1.15,2013-03-20 09:32:00,
2013-03-20 05:37:00,32.1,16.9,30.09,NW,315,2.0,4.0,53,0.00,,,0.00,0,Wunderground v.1.15,2013-03-20 09:37:00,
2013-03-20 05:42:00,33.0,16.8,30.09,NW,322,0.0,1.0,51,0.00,,,0.00,0,Wunderground v.1.15,2013-03-20 09:42:00,
2013-03-20 05:47:00,33.7,15.1,30.09,NW,314,0.0,2.0,46,0.00,,,0.00,0,Wunderground v.1.15,2013-03-20 09:47:00,
2013-03-20 05:52:00,33.8,16.6,30.09,NW,314,0.0,1.0,49,0.00,,,0.00,0,Wunderground v.1.15,2013-03-20 09:52:00,
2013-03-20 05:57:00,33.7,15.6,30.09,NW,315,0.0,2.0,47,0.00,,,0.00,0,Wunderground v.1.15,2013-03-20 09:57:00,
2013-03-20 06:02:00,33.3,15.2,30.09,NW,315,0.0,1.0,47,0.00,,,0.00,0,Wunderground v.1.15,2013-03-20 10:02:00,
2013-03-20 06:07:00,33.2,15.6,30.09,NW,315,1.0,1.0,48,0.00,,,0.00,0,Wunderground v.1.15,2013-03-20 10:07:00,
2013-03-20 06:12:00,32.8,15.7,30.10,NW,315,0.0,1.0,49,0.00,,,0.00,0,Wunderground v.1.15,2013-03-20 10:12:00,
2013-03-20 06:17:00,32.4,15.3,30.10,NW,315,0.0,1.0,49,0.00,,,0.00,0,Wunderground v.1.15,2013-03-20 10:17:00,
2013-03-20 06:22:00,31.7,15.2,30.10,NW,315,0.0,1.0,50,0.00,,,0.00,0,Wunderground v.1.15,2013-03-20 10:22:00,
2013-03-20 06:27:00,31.0,17.1,30.10,NW,315,0.0,1.0,56,0.00,,,0.00,0,Wunderground v.1.15,2013-03-20 10:27:00,
2013-03-20 06:32:00,30.2,18.0,30.10,NW,315,1.0,1.0,60,0.00,,,0.00,0,Wunderground v.1.15,2013-03-20 10:32:00,
2013-03-20 06:37:00,30.1,18.3,30.10,NW,315,0.0,1.0,61,0.00,,,0.00,0,Wunderground v.1.15,2013-03-20 10:37:00,
2013-03-20 06:42:00,29.7,19.0,30.10,NW,315,0.0,1.0,64,0.00,,,0.00,0,Wunderground v.1.15,2013-03-20 10:42:00,
2013-03-20 06:47:00,29.7,19.0,30.10,NW,315,1.0,1.0,64,0.00,,,0.00,0,Wunderground v.1.15,2013-03-20 10:47:00,
2013-03-20 06:53:00,29.9,19.2,30.10,NW,316,1.0,2.0,64,0.00,,,0.00,0,Wunderground v.1.15,2013-03-20 10:53:00,
2013-03-20 06:58:00,31.0,17.5,30.10,North,360,0.0,3.0,57,0.00,,,0.00,0,Wunderground v.1.15,2013-03-20 10:58:00,
2013-03-20 07:03:00,31.2,17.3,30.10,North,360,1.0,1.0,56,0.00,,,0.00,0,Wunderground v.1.15,2013-03-20 11:03:00,
2013-03-20 07:08:00,31.9,17.5,30.10,NW,323,0.0,3.0,55,0.00,,,0.00,0,Wunderground v.1.15,2013-03-20 11:08:00,
2013-03-20 07:13:00,31.6,18.1,30.11,NW,320,1.0,2.0,57,0.00,,,0.00,0,Wunderground v.1.15,2013-03-20 11:13:00,
2013-03-20 07:18:00,31.9,16.7,30.10,NW,317,0.0,3.0,53,0.00,,,0.00,7,Wunderground v.1.15,2013-03-20 11:18:00,
2013-03-20 07:23:00,32.8,15.2,30.11,NW,319,0.0,2.0,48,0.00,,,0.00,9,Wunderground v.1.15,2013-03-20 11:23:00,
2013-03-20 07:28:00,33.1,16.0,30.11,NW,320,1.0,2.0,49,0.00,,,0.00,12,Wunderground v.1.15,2013-03-20 11:28:00,
2013-03-20 07:33:00,32.8,15.7,30.11,NW,320,0.0,1.0,49,0.00,,,0.00,16,Wunderground v.1.15,2013-03-20 11:33:00,
2013-03-20 07:38:00,33.4,15.3,30.11,NW,314,0.0,3.0,47,0.00,,,0.00,21,Wunderground v.1.15,2013-03-20 11:38:00,
2013-03-20 07:43:00,33.5,15.4,30.11,NW,323,1.0,2.0,47,0.00,,,0.00,26,Wunderground v.1.15,2013-03-20 11:43:00,
2013-03-20 07:48:00,33.8,15.2,30.11,NW,310,0.0,3.0,46,0.00,,,0.00,86,Wunderground v.1.15,2013-03-20 11:48:00,
2013-03-20 07:53:00,33.9,15.8,30.11,NW,309,0.0,1.0,47,0.00,,,0.00,111,Wunderground v.1.15,2013-03-20 11:53:00,
2013-03-20 07:58:00,34.6,15.9,30.12,NW,325,1.0,3.0,46,0.00,,,0.00,128,Wunderground v.1.15,2013-03-20 11:58:00,
2013-03-20 08:03:00,35.5,16.2,30.12,NNW,334,0.0,4.0,45,0.00,,,0.00,151,Wunderground v.1.15,2013-03-20 12:03:00,
2013-03-20 08:08:00,36.4,16.5,30.13,NW,305,0.0,6.0,44,0.00,,,0.00,181,Wunderground v.1.15,2013-03-20 12:08:00,
2013-03-20 08:13:00,37.0,15.5,30.13,West,281,3.0,3.0,41,0.00,,,0.00,207,Wunderground v.1.15,2013-03-20 12:13:00,
2013-03-20 08:18:00,37.7,16.1,30.13,North,5,1.0,4.0,41,0.00,,,0.00,199,Wunderground v.1.15,2013-03-20 12:18:00,
2013-03-20 08:23:00,38.1,17.0,30.13,NNW,333,0.0,3.0,42,0.00,,,0.00,258,Wunderground v.1.15,2013-03-20 12:23:00,
2013-03-20 08:28:00,39.1,16.2,30.13,NNW,328,0.0,3.0,39,0.00,,,0.00,223,Wunderground v.1.15,2013-03-20 12:28:00,
2013-03-20 08:33:00,39.7,16.1,30.13,WNW,291,0.0,3.0,38,0.00,,,0.00,141,Wunderground v.1.15,2013-03-20 12:33:00,
2013-03-20 08:38:00,40.0,16.4,30.13,NNE,15,0.0,3.0,38,0.00,,,0.00,278,Wunderground v.1.15,2013-03-20 12:38:00,
2013-03-20 08:43:00,40.7,15.8,30.13,NW,323,1.0,4.0,36,0.00,,,0.00,223,Wunderground v.1.15,2013-03-20 12:43:00,
2013-03-20 08:48:00,40.4,14.9,30.13,NW,308,1.0,4.0,35,0.00,,,0.00,214,Wunderground v.1.15,2013-03-20 12:48:00,
2013-03-20 08:53:00,41.2,16.9,30.13,WNW,292,0.0,4.0,37,0.00,,,0.00,401,Wunderground v.1.15,2013-03-20 12:53:00,
2013-03-20 08:58:00,42.3,16.6,30.13,WSW,254,0.0,4.0,35,0.00,,,0.00,415,Wunderground v.1.15,2013-03-20 12:58:00,
2013-03-20 09:03:00,43.0,16.5,30.14,West,259,8.0,8.0,34,0.00,,,0.00,420,Wunderground v.1.15,2013-03-20 13:03:00,
2013-03-20 09:08:00,42.8,16.3,30.15,West,265,0.0,8.0,34,0.00,,,0.00,318,Wunderground v.1.15,2013-03-20 13:08:00,
2013-03-20 09:13:00,43.2,15.3,30.15,West,264,4.0,5.0,32,0.00,,,0.00,366,Wunderground v.1.15,2013-03-20 13:13:00,
2013-03-20 09:18:00,42.8,15.6,30.15,West,267,1.0,9.0,33,0.00,,,0.00,411,Wunderground v.1.15,2013-03-20 13:18:00,
2013-03-20 09:23:00,43.1,15.9,30.15,WNW,302,1.0,6.0,33,0.00,,,0.00,309,Wunderground v.1.15,2013-03-20 13:23:00,
2013-03-20 09:29:00,43.4,14.7,30.16,NNW,328,2.0,6.0,31,0.00,,,0.00,561,Wunderground v.1.15,2013-03-20 13:29:00,
2013-03-20 09:34:00,44.1,16.1,30.16,NNE,14,4.0,4.0,32,0.00,,,0.00,232,Wunderground v.1.15,2013-03-20 13:34:00,
2013-03-20 09:39:00,43.4,16.2,30.15,NNW,331,0.0,4.0,33,0.00,,,0.00,214,Wunderground v.1.15,2013-03-20 13:39:00,
2013-03-20 09:44:00,42.9,16.4,30.15,WNW,286,0.0,5.0,34,0.00,,,0.00,207,Wunderground v.1.15,2013-03-20 13:44:00,
2013-03-20 09:49:00,43.3,16.1,30.15,SW,228,3.0,10.0,33,0.00,,,0.00,325,Wunderground v.1.15,2013-03-20 13:49:00,
2013-03-20 09:54:00,43.2,15.3,30.15,West,265,0.0,7.0,32,0.00,,,0.00,302,Wunderground v.1.15,2013-03-20 13:54:00,
2013-03-20 09:59:00,43.7,15.7,30.15,NNW,343,6.0,7.0,32,0.00,,,0.00,330,Wunderground v.1.15,2013-03-20 13:59:00,
2013-03-20 10:04:00,43.4,14.7,30.15,NNW,330,1.0,8.0,31,0.00,,,0.00,265,Wunderground v.1.15,2013-03-20 14:04:00,
2013-03-20 10:09:00,43.2,15.3,30.15,WSW,243,3.0,8.0,32,0.00,,,0.00,253,Wunderground v.1.15,2013-03-20 14:09:00,
2013-03-20 10:14:00,43.5,15.5,30.15,North,360,8.0,8.0,32,0.00,,,0.00,322,Wunderground v.1.15,2013-03-20 14:14:00,
2013-03-20 10:19:00,44.3,17.0,30.14,West,279,3.0,8.0,33,0.00,,,0.00,483,Wunderground v.1.15,2013-03-20 14:19:00,
2013-03-20 10:24:00,44.4,15.6,30.15,NW,326,3.0,5.0,31,0.00,,,0.00,397,Wunderground v.1.15,2013-03-20 14:24:00,
2013-03-20 10:29:00,44.7,18.0,30.15,SW,229,2.0,5.0,34,0.00,,,0.00,320,Wunderground v.1.15,2013-03-20 14:29:00,
2013-03-20 10:34:00,44.8,17.4,30.15,WSW,258,1.0,3.0,33,0.00,,,0.00,336,Wunderground v.1.15,2013-03-20 14:34:00,
2013-03-20 10:39:00,45.5,18.0,30.14,NNW,329,3.0,5.0,33,0.00,,,0.00,287,Wunderground v.1.15,2013-03-20 14:39:00,
2013-03-20 10:44:00,46.0,17.0,30.14,South,191,4.0,4.0,31,0.00,,,0.00,411,Wunderground v.1.15,2013-03-20 14:44:00,
2013-03-20 10:49:00,46.5,17.4,30.14,SW,215,1.0,5.0,31,0.00,,,0.00,471,Wunderground v.1.15,2013-03-20 14:49:00,
2013-03-20 10:54:00,47.1,16.4,30.14,WNW,290,3.0,7.0,29,0.00,,,0.00,533,Wunderground v.1.15,2013-03-20 14:54:00,
2013-03-20 10:59:00,47.7,15.3,30.14,NW,308,2.0,7.0,27,0.00,,,0.00,729,Wunderground v.1.15,2013-03-20 14:59:00,
2013-03-20 11:04:00,47.4,15.0,30.14,North,355,2.0,10.0,27,0.00,,,0.00,584,Wunderground v.1.15,2013-03-20 15:04:00,
2013-03-20 11:09:00,47.6,16.1,30.14,West,266,1.0,10.0,28,0.00,,,0.00,677,Wunderground v.1.15,2013-03-20 15:09:00,
2013-03-20 11:14:00,48.9,17.2,30.14,NNW,345,5.0,6.0,28,0.00,,,0.00,621,Wunderground v.1.15,2013-03-20 15:14:00,
2013-03-20 11:19:00,48.8,16.2,30.14,NNW,337,2.0,11.0,27,0.00,,,0.00,796,Wunderground v.1.15,2013-03-20 15:19:00,
2013-03-20 11:24:00,48.4,14.1,30.14,West,280,5.0,10.0,25,0.00,,,0.00,684,Wunderground v.1.15,2013-03-20 15:24:00,
2013-03-20 11:29:00,49.0,16.4,30.13,West,269,2.0,10.0,27,0.00,,,0.00,585,Wunderground v.1.15,2013-03-20 15:29:00,
2013-03-20 11:34:00,49.3,16.7,30.13,SW,219,2.0,8.0,27,0.00,,,0.00,687,Wunderground v.1.15,2013-03-20 15:34:00,
2013-03-20 11:39:00,50.0,16.4,30.13,NW,316,3.0,8.0,26,0.00,,,0.00,814,Wunderground v.1.15,2013-03-20 15:39:00,
2013-03-20 11:44:00,50.5,15.9,30.13,SW,217,3.0,6.0,25,0.00,,,0.00,854,Wunderground v.1.15,2013-03-20 15:44:00,
2013-03-20 11:49:00,50.3,14.8,30.13,WSW,258,4.0,8.0,24,0.00,,,0.00,868,Wunderground v.1.15,2013-03-20 15:49:00,
2013-03-20 11:54:00,50.4,15.8,30.13,WSW,248,4.0,7.0,25,0.00,,,0.00,828,Wunderground v.1.15,2013-03-20 15:54:00,
2013-03-20 11:59:00,50.4,14.9,30.12,SW,234,5.0,7.0,24,0.00,,,0.00,837,Wunderground v.1.15,2013-03-20 15:59:00,
2013-03-20 12:04:00,50.9,16.3,30.12,NW,319,1.0,7.0,25,0.00,,,0.00,807,Wunderground v.1.15,2013-03-20 16:04:00,
2013-03-20 12:09:00,51.0,14.4,30.12,SW,216,6.0,7.0,23,0.00,,,0.00,796,Wunderground v.1.15,2013-03-20 16:09:00,
2013-03-20 12:14:00,51.8,18.0,30.12,North,5,1.0,7.0,26,0.00,,,0.00,752,Wunderground v.1.15,2013-03-20 16:14:00,
2013-03-20 12:19:00,51.5,13.8,30.11,SSW,195,7.0,8.0,22,0.00,,,0.00,882,Wunderground v.1.15,2013-03-20 16:19:00,
2013-03-20 12:24:00,51.1,14.5,30.11,West,279,6.0,6.0,23,0.00,,,0.00,849,Wunderground v.1.15,2013-03-20 16:24:00,
2013-03-20 12:29:00,51.0,16.4,30.10,North,351,1.0,6.0,25,0.00,,,0.00,768,Wunderground v.1.15,2013-03-20 16:29:00,
2013-03-20 12:34:00,50.6,15.1,30.11,NNW,339,0.0,5.0,24,0.00,,,0.00,751,Wunderground v.1.15,2013-03-20 16:34:00,
2013-03-20 12:39:00,52.0,14.3,30.11,NE,55,0.0,5.0,22,0.00,,,0.00,798,Wunderground v.1.15,2013-03-20 16:39:00,
2013-03-20 12:44:00,51.7,14.0,30.10,SW,223,7.0,9.0,22,0.00,,,0.00,756,Wunderground v.1.15,2013-03-20 16:44:00,
2013-03-20 12:49:00,51.9,17.1,30.10,WNW,298,2.0,11.0,25,0.00,,,0.00,831,Wunderground v.1.15,2013-03-20 16:49:00,
2013-03-20 12:54:00,52.7,15.9,30.10,West,275,2.0,12.0,23,0.00,,,0.00,821,Wunderground v.1.15,2013-03-20 16:54:00,
2013-03-20 12:59:00,51.5,14.9,30.09,NNW,346,3.0,12.0,23,0.00,,,0.00,898,Wunderground v.1.15,2013-03-20 16:59:00,
2013-03-20 13:05:00,52.2,17.4,30.08,South,179,4.0,6.0,25,0.00,,,0.00,896,Wunderground v.1.15,2013-03-20 17:05:00,
2013-03-20 13:10:00,53.0,16.1,30.08,WSW,246,4.0,4.0,23,0.00,,,0.00,889,Wunderground v.1.15,2013-03-20 17:10:00,
2013-03-20 13:15:00,53.2,15.3,30.08,SSW,200,9.0,12.0,22,0.00,,,0.00,911,Wunderground v.1.15,2013-03-20 17:15:00,
2013-03-20 13:20:00,53.4,17.5,30.08,SW,231,5.0,6.0,24,0.00,,,0.00,907,Wunderground v.1.15,2013-03-20 17:20:00,
2013-03-20 13:25:00,53.5,16.6,30.07,SW,217,7.0,13.0,23,0.00,,,0.00,842,Wunderground v.1.15,2013-03-20 17:25:00,
2013-03-20 13:30:00,53.2,16.3,30.07,SW,226,6.0,6.0,23,0.00,,,0.00,861,Wunderground v.1.15,2013-03-20 17:30:00,
2013-03-20 13:35:00,53.7,16.7,30.07,WNW,294,1.0,11.0,23,0.00,,,0.00,851,Wunderground v.1.15,2013-03-20 17:35:00,
2013-03-20 13:40:00,52.9,15.0,30.07,West,277,2.0,6.0,22,0.00,,,0.00,861,Wunderground v.1.15,2013-03-20 17:40:00,
2013-03-20 13:45:00,53.2,16.3,30.06,West,263,1.0,15.0,23,0.00,,,0.00,867,Wunderground v.1.15,2013-03-20 17:45:00,
2013-03-20 13:50:00,53.7,17.7,30.05,WSW,240,2.0,4.0,24,0.00,,,0.00,846,Wunderground v.1.15,2013-03-20 17:50:00,
2013-03-20 13:55:00,53.9,14.8,30.05,WSW,254,2.0,9.0,21,0.00,,,0.00,846,Wunderground v.1.15,2013-03-20 17:55:00,
2013-03-20 14:00:00,54.5,18.4,30.04,ENE,76,2.0,4.0,24,0.00,,,0.00,842,Wunderground v.1.15,2013-03-20 18:00:00,
2013-03-20 14:05:00,53.5,16.6,30.04,NW,323,2.0,11.0,23,0.00,,,0.00,838,Wunderground v.1.15,2013-03-20 18:05:00,
2013-03-20 14:10:00,54.1,17.1,30.03,South,183,2.0,4.0,23,0.00,,,0.00,835,Wunderground v.1.15,2013-03-20 18:10:00,
2013-03-20 14:15:00,55.1,17.9,30.03,West,263,4.0,6.0,23,0.00,,,0.00,830,Wunderground v.1.15,2013-03-20 18:15:00,
2013-03-20 14:20:00,55.1,16.9,30.02,NNW,327,5.0,5.0,22,0.00,,,0.00,821,Wunderground v.1.15,2013-03-20 18:20:00,
2013-03-20 14:25:00,54.7,18.6,30.02,SW,221,5.0,7.0,24,0.00,,,0.00,814,Wunderground v.1.15,2013-03-20 18:25:00,
2013-03-20 14:30:00,54.4,16.3,30.02,WSW,255,11.0,11.0,22,0.00,,,0.00,809,Wunderground v.1.15,2013-03-20 18:30:00,
2013-03-20 14:35:00,54.1,15.0,30.01,West,278,2.0,11.0,21,0.00,,,0.00,800,Wunderground v.1.15,2013-03-20 18:35:00,
2013-03-20 14:40:00,55.2,15.9,30.00,SSW,206,5.0,10.0,21,0.00,,,0.00,793,Wunderground v.1.15,2013-03-20 18:40:00,
2013-03-20 14:45:00,54.3,17.2,30.00,SSE,162,6.0,10.0,23,0.00,,,0.00,780,Wunderground v.1.15,2013-03-20 18:45:00,
2013-03-20 14:50:00,54.5,16.4,30.00,South,175,8.0,8.0,22,0.00,,,0.00,772,Wunderground v.1.15,2013-03-20 18:50:00,
2013-03-20 14:55:00,54.9,15.6,30.00,SSW,196,8.0,13.0,21,0.00,,,0.00,749,Wunderground v.1.15,2013-03-20 18:55:00,
2013-03-20 15:00:00,54.7,19.5,29.99,NW,322,0.0,6.0,25,0.00,,,0.00,756,Wunderground v.1.15,2013-03-20 19:00:00,
2013-03-20 15:05:00,56.9,19.4,29.99,SSW,205,7.0,8.0,23,0.00,,,0.00,749,Wunderground v.1.15,2013-03-20 19:05:00,
2013-03-20 15:10:00,55.5,16.1,29.99,South,189,6.0,6.0,21,0.00,,,0.00,731,Wunderground v.1.15,2013-03-20 19:10:00,
2013-03-20 15:15:00,56.5,18.1,29.98,WSW,251,0.0,9.0,22,0.00,,,0.00,721,Wunderground v.1.15,2013-03-20 19:15:00,
2013-03-20 15:20:00,55.7,16.3,29.98,SW,218,6.0,10.0,21,0.00,,,0.00,708,Wunderground v.1.15,2013-03-20 19:20:00,
2013-03-20 15:26:00,56.2,16.7,29.98,WNW,284,7.0,10.0,21,0.00,,,0.00,694,Wunderground v.1.15,2013-03-20 19:26:00,
2013-03-20 15:31:00,56.8,17.2,29.98,SSW,209,4.0,7.0,21,0.00,,,0.00,679,Wunderground v.1.15,2013-03-20 19:31:00,
2013-03-20 15:36:00,56.1,16.6,29.97,WSW,258,3.0,7.0,21,0.00,,,0.00,668,Wunderground v.1.15,2013-03-20 19:36:00,
2013-03-20 15:41:00,56.2,15.6,29.97,SSW,200,6.0,10.0,20,0.00,,,0.00,656,Wunderground v.1.15,2013-03-20 19:41:00,
2013-03-20 15:46:00,56.2,13.2,29.96,SSW,205,3.0,11.0,18,0.00,,,0.00,643,Wunderground v.1.15,2013-03-20 19:46:00,
2013-03-20 15:51:00,55.8,17.5,29.96,WNW,288,0.0,6.0,22,0.00,,,0.00,624,Wunderground v.1.15,2013-03-20 19:51:00,
2013-03-20 15:56:00,56.2,14.4,29.95,SSE,165,4.0,9.0,19,0.00,,,0.00,608,Wunderground v.1.15,2013-03-20 19:56:00,
2013-03-20 16:01:00,56.2,15.6,29.95,SSW,213,5.0,6.0,20,0.00,,,0.00,596,Wunderground v.1.15,2013-03-20 20:01:00,
2013-03-20 16:06:00,56.5,14.7,29.94,WSW,240,5.0,9.0,19,0.00,,,0.00,582,Wunderground v.1.15,2013-03-20 20:06:00,
2013-03-20 16:11:00,56.5,13.4,29.95,SW,234,2.0,11.0,18,0.00,,,0.00,568,Wunderground v.1.15,2013-03-20 20:11:00,
2013-03-20 16:16:00,55.8,14.1,29.94,WSW,252,6.0,14.0,19,0.00,,,0.00,550,Wunderground v.1.15,2013-03-20 20:16:00,
2013-03-20 16:21:00,55.9,12.9,29.94,South,182,4.0,7.0,18,0.00,,,0.00,529,Wunderground v.1.15,2013-03-20 20:21:00,
2013-03-20 16:26:00,55.7,15.2,29.93,South,184,6.0,8.0,20,0.00,,,0.00,515,Wunderground v.1.15,2013-03-20 20:26:00,
2013-03-20 16:31:00,55.8,16.4,29.93,South,188,10.0,11.0,21,0.00,,,0.00,499,Wunderground v.1.15,2013-03-20 20:31:00,
2013-03-20 16:36:00,55.9,16.5,29.93,SW,225,0.0,11.0,21,0.00,,,0.00,485,Wunderground v.1.15,2013-03-20 20:36:00,
2013-03-20 16:41:00,56.7,18.2,29.92,South,185,3.0,6.0,22,0.00,,,0.00,480,Wunderground v.1.15,2013-03-20 20:41:00,
2013-03-20 16:46:00,55.3,16.0,29.92,SSW,194,5.0,8.0,21,0.00,,,0.00,475,Wunderground v.1.15,2013-03-20 20:46:00,
2013-03-20 16:51:00,55.5,18.2,29.92,WNW,296,5.0,6.0,23,0.00,,,0.00,445,Wunderground v.1.15,2013-03-20 20:51:00,
2013-03-20 16:56:00,55.8,17.5,29.92,SW,215,6.0,7.0,22,0.00,,,0.00,422,Wunderground v.1.15,2013-03-20 20:56:00,
2013-03-20 17:01:00,55.4,18.2,29.92,South,191,2.0,5.0,23,0.00,,,0.00,404,Wunderground v.1.15,2013-03-20 21:01:00,
2013-03-20 17:06:00,56.3,16.8,29.91,South,191,1.0,7.0,21,0.00,,,0.00,392,Wunderground v.1.15,2013-03-20 21:06:00,
2013-03-20 17:11:00,56.8,17.2,29.91,SW,234,4.0,7.0,21,0.00,,,0.00,381,Wunderground v.1.15,2013-03-20 21:11:00,
2013-03-20 17:16:00,55.9,16.5,29.91,South,180,6.0,7.0,21,0.00,,,0.00,362,Wunderground v.1.15,2013-03-20 21:16:00,
2013-03-20 17:21:00,56.1,15.5,29.91,SSW,192,3.0,8.0,20,0.00,,,0.00,341,Wunderground v.1.15,2013-03-20 21:21:00,
2013-03-20 17:26:00,55.1,13.5,29.91,SSE,163,2.0,8.0,19,0.00,,,0.00,299,Wunderground v.1.15,2013-03-20 21:26:00,
2013-03-20 17:31:00,55.7,17.4,29.90,SSW,199,9.0,9.0,22,0.00,,,0.00,304,Wunderground v.1.15,2013-03-20 21:31:00,
2013-03-20 17:36:00,56.0,16.6,29.90,South,184,3.0,9.0,21,0.00,,,0.00,290,Wunderground v.1.15,2013-03-20 21:36:00,
2013-03-20 17:41:00,55.7,18.4,29.90,SW,227,9.0,9.0,23,0.00,,,0.00,260,Wunderground v.1.15,2013-03-20 21:41:00,
2013-03-20 17:46:00,55.3,16.0,29.90,SSW,200,4.0,9.0,21,0.00,,,0.00,239,Wunderground v.1.15,2013-03-20 21:46:00,
2013-03-20 17:51:00,55.3,18.1,29.90,SSW,209,5.0,5.0,23,0.00,,,0.00,221,Wunderground v.1.15,2013-03-20 21:51:00,
2013-03-20 17:56:00,55.1,16.9,29.90,SW,225,4.0,7.0,22,0.00,,,0.00,181,Wunderground v.1.15,2013-03-20 21:56:00,
2013-03-20 18:01:00,54.5,14.2,29.90,WSW,237,2.0,7.0,20,0.00,,,0.00,151,Wunderground v.1.15,2013-03-20 22:01:00,
2013-03-20 18:06:00,54.5,15.3,29.89,SW,232,7.0,9.0,21,0.00,,,0.00,116,Wunderground v.1.15,2013-03-20 22:06:00,
2013-03-20 18:11:00,54.2,17.1,29.90,WSW,238,7.0,7.0,23,0.00,,,0.00,102,Wunderground v.1.15,2013-03-20 22:11:00,
2013-03-20 18:16:00,53.8,17.8,29.90,WSW,258,4.0,7.0,24,0.00,,,0.00,74,Wunderground v.1.15,2013-03-20 22:16:00,
2013-03-20 18:21:00,53.4,18.4,29.90,West,260,0.0,5.0,25,0.00,,,0.00,47,Wunderground v.1.15,2013-03-20 22:21:00,
2013-03-20 18:27:00,53.1,17.2,29.90,South,191,4.0,10.0,24,0.00,,,0.00,46,Wunderground v.1.15,2013-03-20 22:27:00,
2013-03-20 18:32:00,52.7,16.9,29.90,SSW,213,1.0,6.0,24,0.00,,,0.00,44,Wunderground v.1.15,2013-03-20 22:32:00,
2013-03-20 18:37:00,52.6,15.8,29.90,SW,219,3.0,7.0,23,0.00,,,0.00,47,Wunderground v.1.15,2013-03-20 22:37:00,
2013-03-20 18:42:00,52.5,15.7,29.90,South,188,1.0,3.0,23,0.00,,,0.00,44,Wunderground v.1.15,2013-03-20 22:42:00,
2013-03-20 18:47:00,52.2,17.4,29.90,SSW,194,1.0,3.0,25,0.00,,,0.00,40,Wunderground v.1.15,2013-03-20 22:47:00,
2013-03-20 18:52:00,52.2,17.4,29.90,SSW,205,3.0,6.0,25,0.00,,,0.00,39,Wunderground v.1.15,2013-03-20 22:52:00,
2013-03-20 18:57:00,52.1,17.3,29.90,South,182,2.0,6.0,25,0.00,,,0.00,32,Wunderground v.1.15,2013-03-20 22:57:00,
2013-03-20 19:02:00,51.8,17.0,29.90,SSW,192,3.0,6.0,25,0.00,,,0.00,28,Wunderground v.1.15,2013-03-20 23:02:00,
2013-03-20 19:07:00,51.8,17.0,29.90,South,191,1.0,7.0,25,0.00,,,0.00,25,Wunderground v.1.15,2013-03-20 23:07:00,
2013-03-20 19:12:00,51.4,17.6,29.90,SSW,211,3.0,4.0,26,0.00,,,0.00,18,Wunderground v.1.15,2013-03-20 23:12:00,
2013-03-20 19:17:00,51.3,17.5,29.90,South,188,1.0,6.0,26,0.00,,,0.00,12,Wunderground v.1.15,2013-03-20 23:17:00,
2013-03-20 19:22:00,51.0,18.1,29.90,SSW,192,0.0,3.0,27,0.00,,,0.00,7,Wunderground v.1.15,2013-03-20 23:22:00,
2013-03-20 19:27:00,50.6,19.5,29.90,SSW,197,2.0,5.0,29,0.00,,,0.00,5,Wunderground v.1.15,2013-03-20 23:27:00,
2013-03-20 19:32:00,50.1,19.0,29.89,South,190,2.0,3.0,29,0.00,,,0.00,0,Wunderground v.1.15,2013-03-20 23:32:00,
2013-03-20 19:37:00,49.8,18.8,29.89,SSW,194,1.0,4.0,29,0.00,,,0.00,0,Wunderground v.1.15,2013-03-20 23:37:00,
2013-03-20 19:42:00,49.6,18.6,29.89,South,190,0.0,3.0,29,0.00,,,0.00,0,Wunderground v.1.15,2013-03-20 23:42:00,
2013-03-20 19:47:00,48.8,19.5,29.89,South,190,0.0,3.0,31,0.00,,,0.00,0,Wunderground v.1.15,2013-03-20 23:47:00,
2013-03-20 19:52:00,47.6,21.3,29.89,South,190,0.0,0.0,35,0.00,,,0.00,0,Wunderground v.1.15,2013-03-20 23:52:00,
2013-03-20 19:57:00,47.9,20.1,29.89,South,191,0.0,2.0,33,0.00,,,0.00,0,Wunderground v.1.15,2013-03-20 23:57:00,
2013-03-20 20:02:00,47.2,20.2,29.89,South,191,0.0,1.0,34,0.00,,,0.00,0,Wunderground v.1.15,2013-03-21 00:02:00,
2013-03-20 20:07:00,46.7,20.5,29.89,South,191,0.0,1.0,35,0.00,,,0.00,0,Wunderground v.1.15,2013-03-21 00:07:00,
2013-03-20 20:12:00,45.8,22.2,29.89,South,191,0.0,0.0,39,0.00,,,0.00,0,Wunderground v.1.15,2013-03-21 00:12:00,
2013-03-20 20:17:00,44.5,23.9,29.88,South,191,0.0,0.0,44,0.00,,,0.00,0,Wunderground v.1.15,2013-03-21 00:17:00,
2013-03-20 20:22:00,43.7,23.7,29.88,South,191,0.0,0.0,45,0.00,,,0.00,0,Wunderground v.1.15,2013-03-21 00:22:00,
2013-03-20 20:27:00,43.7,24.2,29.88,South,191,0.0,0.0,46,0.00,,,0.00,0,Wunderground v.1.15,2013-03-21 00:27:00,
2013-03-20 20:32:00,43.2,23.8,29.88,South,191,0.0,0.0,46,0.00,,,0.00,0,Wunderground v.1.15,2013-03-21 00:32:00,
2013-03-20 20:37:00,42.1,24.8,29.88,South,191,0.0,0.0,50,0.00,,,0.00,0,Wunderground v.1.15,2013-03-21 00:37:00,
2013-03-20 20:42:00,41.8,25.4,29.88,South,191,0.0,0.0,52,0.00,,,0.00,0,Wunderground v.1.15,2013-03-21 00:42:00,
2013-03-20 20:47:00,41.3,25.0,29.88,South,191,0.0,0.0,52,0.00,,,0.00,0,Wunderground v.1.15,2013-03-21 00:47:00,
2013-03-20 20:52:00,40.9,25.1,29.88,South,191,0.0,0.0,53,0.00,,,0.00,0,Wunderground v.1.15,2013-03-21 00:52:00,
2013-03-20 20:57:00,40.1,25.2,29.88,South,191,0.0,0.0,55,0.00,,,0.00,0,Wunderground v.1.15,2013-03-21 00:57:00,
2013-03-20 21:02:00,39.5,24.7,29.88,South,191,0.0,0.0,55,0.00,,,0.00,0,Wunderground v.1.15,2013-03-21 01:02:00,
2013-03-20 21:07:00,39.1,23.8,29.88,South,191,0.0,0.0,54,0.00,,,0.00,0,Wunderground v.1.15,2013-03-21 01:07:00,
2013-03-20 21:12:00,38.4,23.6,29.88,South,191,0.0,0.0,55,0.00,,,0.00,0,Wunderground v.1.15,2013-03-21 01:12:00,
2013-03-20 21:17:00,38.1,23.8,29.88,South,191,0.0,0.0,56,0.00,,,0.00,0,Wunderground v.1.15,2013-03-21 01:17:00,
2013-03-20 21:22:00,37.5,23.6,29.88,South,191,0.0,0.0,57,0.00,,,0.00,0,Wunderground v.1.15,2013-03-21 01:22:00,
2013-03-20 21:27:00,37.0,24.0,29.88,South,191,0.0,0.0,59,0.00,,,0.00,0,Wunderground v.1.15,2013-03-21 01:27:00,
2013-03-20 21:32:00,36.3,24.9,29.88,South,191,0.0,0.0,63,0.00,,,0.00,0,Wunderground v.1.15,2013-03-21 01:32:00,
2013-03-20 21:37:00,35.4,24.8,29.88,South,191,0.0,0.0,65,0.00,,,0.00,0,Wunderground v.1.15,2013-03-21 01:37:00,
2013-03-20 21:42:00,36.4,26.8,29.88,South,191,0.0,0.0,68,0.00,,,0.00,0,Wunderground v.1.15,2013-03-21 01:42:00,
2013-03-20 21:47:00,36.1,26.2,29.88,South,191,0.0,0.0,67,0.00,,,0.00,0,Wunderground v.1.15,2013-03-21 01:47:00,
2013-03-20 21:52:00,35.5,27.0,29.88,South,191,0.0,0.0,71,0.00,,,0.00,0,Wunderground v.1.15,2013-03-21 01:52:00,
2013-03-20 21:57:00,35.9,27.4,29.88,South,191,0.0,0.0,71,0.00,,,0.00,0,Wunderground v.1.15,2013-03-21 01:57:00,
2013-03-20 22:02:00,36.4,26.8,29.88,South,191,1.0,1.0,68,0.00,,,0.00,0,Wunderground v.1.15,2013-03-21 02:02:00,
2013-03-20 22:07:00,37.3,27.0,29.89,South,191,0.0,1.0,66,0.00,,,0.00,0,Wunderground v.1.15,2013-03-21 02:07:00,
2013-03-20 22:12:00,39.5,25.9,29.89,South,188,2.0,4.0,58,0.00,,,0.00,0,Wunderground v.1.15,2013-03-21 02:12:00,
2013-03-20 22:17:00,43.0,24.1,29.89,SSW,211,1.0,6.0,47,0.00,,,0.00,0,Wunderground v.1.15,2013-03-21 02:17:00,
2013-03-20 22:22:00,42.6,23.8,29.89,West,270,2.0,3.0,47,0.00,,,0.00,0,Wunderground v.1.15,2013-03-21 02:22:00,
2013-03-20 22:28:00,44.6,22.9,29.89,SW,214,1.0,5.0,42,0.00,,,0.00,0,Wunderground v.1.15,2013-03-21 02:28:00,
2013-03-20 22:33:00,43.9,23.4,29.88,SW,216,1.0,2.0,44,0.00,,,0.00,0,Wunderground v.1.15,2013-03-21 02:33:00,
2013-03-20 22:38:00,43.0,22.5,29.88,SW,218,0.0,2.0,44,0.00,,,0.00,0,Wunderground v.1.15,2013-03-21 02:38:00,
2013-03-20 22:43:00,44.0,22.9,29.88,SW,218,0.0,0.0,43,0.00,,,0.00,0,Wunderground v.1.15,2013-03-21 02:43:00,
2013-03-20 22:48:00,43.0,23.6,29.88,SW,218,0.0,0.0,46,0.00,,,0.00,0,Wunderground v.1.15,2013-03-21 02:48:00,
2013-03-20 22:53:00,41.1,23.4,29.88,SW,218,0.0,0.0,49,0.00,,,0.00,0,Wunderground v.1.15,2013-03-21 02:53:00,
2013-03-20 22:58:00,40.8,25.4,29.88,SW,218,0.0,1.0,54,0.00,,,0.00,0,Wunderground v.1.15,2013-03-21 02:58:00,
2013-03-20 23:03:00,40.9,26.0,29.87,SW,218,1.0,1.0,55,0.00,,,0.00,0,Wunderground v.1.15,2013-03-21 03:03:00,
2013-03-20 23:08:00,40.4,25.9,29.87,SSW,213,1.0,2.0,56,0.00,,,0.00,0,Wunderground v.1.15,2013-03-21 03:08:00,
2013-03-20 23:13:00,39.3,26.6,29.86,SSW,213,0.0,1.0,60,0.00,,,0.00,0,Wunderground v.1.15,2013-03-21 03:13:00,
2013-03-20 23:18:00,38.0,27.6,29.86,SSW,213,0.0,1.0,66,0.00,,,0.00,0,Wunderground v.1.15,2013-03-21 03:18:00,
2013-03-20 23:23:00,37.2,27.6,29.86,SSW,213,0.0,0.0,68,0.00,,,0.00,0,Wunderground v.1.15,2013-03-21 03:23:00,
2013-03-20 23:28:00,37.3,28.1,29.86,SSW,213,0.0,0.0,69,0.00,,,0.00,0,Wunderground v.1.15,2013-03-21 03:28:00,
2013-03-20 23:33:00,36.9,27.3,29.86,SSW,213,0.0,0.0,68,0.00,,,0.00,0,Wunderground v.1.15,2013-03-21 03:33:00,
2013-03-20 23:38:00,36.1,27.3,29.85,SSW,213,0.0,0.0,70,0.00,,,0.00,0,Wunderground v.1.15,2013-03-21 03:38:00,
2013-03-20 23:43:00,35.1,26.6,29.86,SSW,213,0.0,0.0,71,0.00,,,0.00,0,Wunderground v.1.15,2013-03-21 03:43:00,
2013-03-20 23:48:00,35.0,26.5,29.85,SSW,213,0.0,0.0,71,0.00,,,0.00,0,Wunderground v.1.15,2013-03-21 03:48:00,
2013-03-20 23:53:00,35.5,27.7,29.85,SSW,213,0.0,1.0,73,0.00,,,0.00,0,Wunderground v.1.15,2013-03-21 03:53:00,
2013-03-20 23:58:00,36.0,28.2,29.85,SSW,193,0.0,3.0,73,0.00,,,0.00,0,Wunderground v.1.15,2013-03-21 03:58:00,